Time;durP1;ratioP1;P1;durP2;ratioP2;P2;SDS_P1;SDS_P2;PMS_P1;PMS_P2;Temp;Humidity;BMP_temperature;BMP_pressure;BME280_temperature;BME280_humidity;BME280_pressure;Samples;Min_cycle;Max_cycle;Signal;HPM_P1;HPM_P2
2023/06/26 00:01:29;;;;;;;5.50;5.10;;;;;;;18.66;100.00;99782.84;91209;1270;139959;-64
2023/06/26 00:03:32;;;;;;;6.20;5.70;;;;;;;18.65;100.00;99781.00;91236;1269;24220;-64
2023/06/26 00:05:34;;;;;;;6.30;5.70;;;;;;;18.62;100.00;99778.59;91161;1273;138192;-64
2023/06/26 00:07:36;;;;;;;6.90;4.90;;;;;;;18.58;100.00;99774.94;91188;1269;22418;-64
2023/06/26 00:09:37;;;;;;;5.20;4.70;;;;;;;18.54;100.00;99776.25;91202;1269;138085;-64
2023/06/26 00:11:39;;;;;;;5.20;4.70;;;;;;;18.54;100.00;99773.44;91320;1270;23005;-64
2023/06/26 00:13:41;;;;;;;6.10;4.90;;;;;;;18.51;100.00;99772.23;91189;1269;138167;-63
2023/06/26 00:15:43;;;;;;;5.90;5.40;;;;;;;18.44;100.00;99768.80;91435;1269;23202;-64
2023/06/26 00:17:45;;;;;;;5.30;4.90;;;;;;;18.46;100.00;99770.13;91149;1269;139498;-63
2023/06/26 00:19:47;;;;;;;5.70;5.30;;;;;;;18.54;100.00;99767.50;91298;1270;22221;-63
2023/06/26 00:21:49;;;;;;;5.10;4.80;;;;;;;18.55;100.00;99765.68;91114;1268;139366;-64
2023/06/26 00:23:51;;;;;;;5.00;4.70;;;;;;;18.45;100.00;99762.98;91162;1255;22371;-63
2023/06/26 00:25:53;;;;;;;4.90;4.50;;;;;;;18.39;100.00;99763.37;91183;1270;139396;-63
2023/06/26 00:27:54;;;;;;;4.80;4.40;;;;;;;18.34;100.00;99763.79;91303;1270;22387;-63
2023/06/26 00:29:56;;;;;;;4.80;4.60;;;;;;;18.28;100.00;99765.35;91179;1269;138548;-62
2023/06/26 00:31:58;;;;;;;5.70;5.10;;;;;;;18.26;100.00;99765.27;91252;1269;22584;-63
2023/06/26 00:34:00;;;;;;;6.60;6.00;;;;;;;18.28;100.00;99764.11;91158;1269;139095;-63
2023/06/26 00:36:02;;;;;;;5.00;4.70;;;;;;;18.25;100.00;99761.27;91280;1270;22943;-63
2023/06/26 00:38:04;;;;;;;6.50;6.00;;;;;;;18.22;100.00;99763.71;91279;1270;22335;-63
2023/06/26 00:40:07;;;;;;;5.50;5.10;;;;;;;18.24;100.00;99763.95;91185;1272;138051;-63
2023/06/26 00:42:09;;;;;;;5.70;5.30;;;;;;;18.23;100.00;99763.94;91196;1270;22307;-63
2023/06/26 00:44:12;;;;;;;5.30;4.80;;;;;;;18.27;100.00;99767.60;91139;1265;140832;-62
2023/06/26 00:46:13;;;;;;;7.10;6.40;;;;;;;18.34;100.00;99765.02;91285;1270;22281;-63
2023/06/26 00:48:15;;;;;;;4.60;4.30;;;;;;;18.39;100.00;99759.98;91145;1273;138205;-63
2023/06/26 00:50:17;;;;;;;5.90;5.50;;;;;;;18.40;100.00;99757.98;91223;1266;22818;-63
2023/06/26 00:52:20;;;;;;;5.10;4.70;;;;;;;18.44;100.00;99760.17;91187;1270;140036;-62
2023/06/26 00:54:22;;;;;;;5.00;4.50;;;;;;;18.46;100.00;99765.01;91235;1267;22957;-63
2023/06/26 00:56:24;;;;;;;5.70;5.30;;;;;;;18.50;100.00;99761.42;91140;1269;139549;-63
2023/06/26 00:58:26;;;;;;;5.20;4.90;;;;;;;18.57;100.00;99756.20;91173;1270;23016;-63
2023/06/26 01:00:27;;;;;;;4.80;4.40;;;;;;;18.58;100.00;99756.20;91125;1269;137879;-63
2023/06/26 01:02:33;;;;;;;5.50;5.00;;;;;;;18.59;100.00;99759.40;91234;1267;22223;-63
2023/06/26 01:04:36;;;;;;;5.10;4.80;;;;;;;18.77;100.00;99761.95;91125;1269;139615;-63
2023/06/26 01:06:40;;;;;;;5.00;4.60;;;;;;;18.89;100.00;99761.74;91128;1271;22162;-63
2023/06/26 01:08:42;;;;;;;5.10;4.80;;;;;;;18.93;100.00;99757.67;91144;1265;138146;-64
2023/06/26 01:10:45;;;;;;;7.50;6.80;;;;;;;18.99;100.00;99752.86;91261;1269;22363;-63
2023/06/26 01:12:47;;;;;;;5.60;5.30;;;;;;;19.03;100.00;99753.66;91150;1270;138057;-64
2023/06/26 01:14:49;;;;;;;6.50;5.10;;;;;;;19.00;100.00;99754.06;91286;1271;22482;-63
2023/06/26 01:16:52;;;;;;;4.80;4.50;;;;;;;18.93;100.00;99752.98;91192;1271;138063;-63
2023/06/26 01:18:55;;;;;;;7.70;5.40;;;;;;;18.90;100.00;99752.09;91282;1270;22914;-64
2023/06/26 01:21:01;;;;;;;5.90;5.50;;;;;;;18.84;100.00;99754.64;91043;1255;138821;-63
2023/06/26 01:23:14;;;;;;;5.60;5.20;;;;;;;18.75;100.00;99755.13;91276;1269;22481;-63
2023/06/26 01:25:38;;;;;;;7.40;5.70;;;;;;;18.63;100.00;99758.89;91168;1268;139376;-64
2023/06/26 01:27:42;;;;;;;4.90;4.50;;;;;;;18.52;100.00;99760.63;91304;1268;22974;-62
2023/06/26 01:29:45;;;;;;;5.50;5.00;;;;;;;18.48;100.00;99762.65;91056;1267;138397;-64
2023/06/26 01:31:49;;;;;;;5.20;4.80;;;;;;;18.50;100.00;99766.87;91323;1270;22203;-64
2023/06/26 01:33:51;;;;;;;5.10;4.80;;;;;;;18.49;100.00;99767.46;91142;1269;140283;-64
2023/06/26 01:35:55;;;;;;;5.20;4.80;;;;;;;18.43;100.00;99764.91;91299;1269;22220;-65
2023/06/26 01:38:16;;;;;;;4.60;4.30;;;;;;;18.36;100.00;99759.88;91011;1258;138361;-65
2023/06/26 01:40:18;;;;;;;4.80;4.50;;;;;;;18.30;100.00;99756.20;91158;1270;138852;-63
2023/06/26 01:42:20;;;;;;;4.40;4.10;;;;;;;18.24;100.00;99758.79;91277;1271;22390;-63
2023/06/26 01:44:27;;;;;;;4.40;4.00;;;;;;;18.23;100.00;99754.83;90950;1271;139792;-64
2023/06/26 01:46:55;;;;;;;4.70;4.40;;;;;;;18.19;100.00;99753.54;91286;1271;22338;-63
2023/06/26 01:49:26;;;;;;;4.70;4.40;;;;;;;18.14;100.00;99744.85;91039;1271;141229;-63
2023/06/26 01:51:32;;;;;;;4.70;4.30;;;;;;;18.06;100.00;99743.69;91257;1269;23204;-63
2023/06/26 01:53:39;;;;;;;4.50;4.20;;;;;;;18.00;100.00;99739.89;90989;1260;138304;-63
2023/06/26 01:55:53;;;;;;;3.80;3.60;;;;;;;17.92;100.00;99739.05;91069;1273;22236;-64
2023/06/26 01:57:57;;;;;;;3.80;3.50;;;;;;;17.89;100.00;99739.73;91079;1255;139270;-62
2023/06/26 02:00:00;;;;;;;3.50;3.10;;;;;;;17.89;100.00;99738.70;91198;1273;22880;-64
2023/06/26 02:02:02;;;;;;;3.80;3.50;;;;;;;17.88;100.00;99737.38;91143;1270;139045;-64
2023/06/26 02:04:04;;;;;;;4.30;3.50;;;;;;;17.86;100.00;99738.48;91160;1270;138614;-64
2023/06/26 02:06:05;;;;;;;5.10;4.60;;;;;;;17.85;100.00;99739.43;91094;1276;22867;-63
2023/06/26 02:08:10;;;;;;;4.70;4.40;;;;;;;17.83;100.00;99739.40;91021;1259;139688;-64
2023/06/26 02:10:12;;;;;;;4.60;4.20;;;;;;;17.84;100.00;99733.88;91161;1271;22462;-63
2023/06/26 02:12:14;;;;;;;4.90;4.30;;;;;;;17.84;100.00;99732.63;91123;1275;138935;-62
2023/06/26 02:14:16;;;;;;;4.00;3.80;;;;;;;17.84;100.00;99731.27;91326;1269;22323;-63
2023/06/26 02:16:17;;;;;;;4.20;3.90;;;;;;;17.86;100.00;99729.86;91252;1269;138136;-63
2023/06/26 02:18:22;;;;;;;3.80;3.60;;;;;;;17.83;100.00;99729.10;91303;1273;22360;-64
2023/06/26 02:20:23;;;;;;;4.10;3.80;;;;;;;17.75;100.00;99730.67;91144;1270;139338;-64
2023/06/26 02:22:25;;;;;;;3.90;3.70;;;;;;;17.69;100.00;99729.79;91348;1254;22348;-63
2023/06/26 02:24:29;;;;;;;3.90;3.70;;;;;;;17.67;100.00;99730.95;91134;1269;139180;-64
2023/06/26 02:26:32;;;;;;;3.80;3.60;;;;;;;17.72;100.00;99729.98;91245;1269;22212;-63
2023/06/26 02:28:34;;;;;;;3.80;3.50;;;;;;;17.71;100.00;99733.27;91234;1262;138315;-64
2023/06/26 02:30:36;;;;;;;2.80;2.70;;;;;;;17.70;100.00;99731.30;91391;1269;23023;-64
2023/06/26 02:32:38;;;;;;;3.60;3.40;;;;;;;17.70;100.00;99732.11;91245;1269;138232;-67
2023/06/26 02:34:40;;;;;;;4.50;4.20;;;;;;;17.71;100.00;99728.46;91255;1270;22330;-63
2023/06/26 02:36:42;;;;;;;7.80;4.20;;;;;;;17.78;100.00;99722.34;91239;1269;138414;-63
2023/06/26 02:38:43;;;;;;;3.60;3.40;;;;;;;17.83;100.00;99725.52;91269;1271;22394;-63
2023/06/26 02:40:45;;;;;;;3.40;3.10;;;;;;;17.84;100.00;99724.27;91148;1272;139308;-64
2023/06/26 02:42:47;;;;;;;4.50;3.50;;;;;;;17.85;100.00;99723.42;91093;1270;22346;-64
2023/06/26 02:44:48;;;;;;;4.10;3.80;;;;;;;17.83;100.00;99727.81;91017;1268;138574;-64
2023/06/26 02:46:50;;;;;;;7.40;6.60;;;;;;;17.79;100.00;99726.08;91210;1265;22360;-64
2023/06/26 02:48:52;;;;;;;3.90;3.60;;;;;;;17.69;100.00;99721.27;91217;1270;138842;-63
2023/06/26 02:50:54;;;;;;;3.40;3.20;;;;;;;17.65;100.00;99720.13;91209;1271;22421;-64
2023/06/26 02:53:01;;;;;;;8.20;5.90;;;;;;;17.77;100.00;99717.86;91071;1270;139196;-63
2023/06/26 02:55:05;;;;;;;3.80;3.50;;;;;;;17.87;100.00;99715.85;91164;1258;22364;-64
2023/06/26 02:57:07;;;;;;;3.80;3.40;;;;;;;17.94;100.00;99715.72;91048;1259;139885;-64
2023/06/26 02:59:08;;;;;;;3.90;3.60;;;;;;;18.04;100.00;99714.60;91314;1269;22284;-63
2023/06/26 03:01:10;;;;;;;4.90;4.40;;;;;;;18.15;100.00;99712.38;91072;1259;141862;-63
2023/06/26 03:03:13;;;;;;;6.00;4.70;;;;;;;18.12;100.00;99712.80;91103;1268;22941;-64
2023/06/26 03:05:15;;;;;;;4.20;3.80;;;;;;;18.01;100.00;99710.67;91140;1260;138193;-64
2023/06/26 03:07:18;;;;;;;3.40;3.30;;;;;;;17.99;100.00;99711.30;91232;1270;22227;-65
2023/06/26 03:09:20;;;;;;;3.00;2.80;;;;;;;18.08;100.00;99705.96;91277;1268;137971;-63
2023/06/26 03:11:23;;;;;;;3.90;3.70;;;;;;;18.10;100.00;99702.33;91182;1272;22435;-63
2023/06/26 03:13:24;;;;;;;3.30;3.10;;;;;;;18.05;100.00;99707.81;91177;1268;138214;-63
2023/06/26 03:15:27;;;;;;;3.60;3.40;;;;;;;17.98;100.00;99707.41;91127;1269;22359;-65
2023/06/26 03:17:29;;;;;;;5.50;4.90;;;;;;;17.92;100.00;99708.52;91023;1270;139899;-64
2023/06/26 03:19:34;;;;;;;5.70;4.40;;;;;;;17.89;100.00;99710.70;91213;1270;22451;-64
2023/06/26 03:21:52;;;;;;;4.20;3.90;;;;;;;17.87;100.00;99707.06;91097;1258;138377;-64
2023/06/26 03:23:54;;;;;;;4.40;4.10;;;;;;;17.83;100.00;99706.73;91130;1260;22346;-63
2023/06/26 03:25:56;;;;;;;5.00;4.50;;;;;;;17.81;100.00;99708.11;91035;1264;139545;-63
2023/06/26 03:28:03;;;;;;;5.50;5.00;;;;;;;17.76;100.00;99711.16;90874;1270;140455;-63
2023/06/26 03:30:06;;;;;;;5.80;5.30;;;;;;;17.74;100.00;99702.36;91303;1270;22907;-65
2023/06/26 03:32:09;;;;;;;3.80;3.60;;;;;;;17.77;100.00;99708.10;91085;1271;139008;-63
2023/06/26 03:34:10;;;;;;;3.70;3.50;;;;;;;17.75;100.00;99704.46;91188;1270;23090;-65
2023/06/26 03:36:12;;;;;;;7.00;6.40;;;;;;;17.71;100.00;99704.84;91183;1269;140392;-66
2023/06/26 03:38:14;;;;;;;5.80;4.50;;;;;;;17.66;100.00;99703.77;91148;1272;23309;-64
2023/06/26 03:40:17;;;;;;;4.80;4.50;;;;;;;17.73;100.00;99705.30;91035;1260;139870;-64
2023/06/26 03:42:19;;;;;;;7.10;3.60;;;;;;;17.79;100.00;99706.56;91290;1265;22214;-64
2023/06/26 03:44:22;;;;;;;4.40;4.10;;;;;;;17.86;100.00;99703.98;91149;1270;138230;-66
2023/06/26 03:46:24;;;;;;;5.20;4.50;;;;;;;17.88;100.00;99699.86;91188;1270;22440;-58
2023/06/26 03:48:25;;;;;;;4.40;4.00;;;;;;;17.92;100.00;99697.09;91139;1268;138972;-60
2023/06/26 03:50:27;;;;;;;4.10;3.90;;;;;;;17.95;100.00;99693.14;91299;1270;22282;-59
2023/06/26 03:52:30;;;;;;;4.70;4.30;;;;;;;18.02;100.00;99693.10;91168;1266;139196;-60
2023/06/26 03:54:33;;;;;;;3.50;3.30;;;;;;;18.04;100.00;99690.21;91243;1270;23164;-59
2023/06/26 03:56:35;;;;;;;5.10;4.60;;;;;;;18.00;100.00;99690.50;91190;1271;138348;-61
2023/06/26 03:58:39;;;;;;;4.50;4.00;;;;;;;17.98;100.00;99689.98;91300;1269;22420;-59
2023/06/26 04:00:41;;;;;;;5.30;4.30;;;;;;;17.99;100.00;99690.16;91204;1270;137984;-59
2023/06/26 04:02:43;;;;;;;4.40;4.10;;;;;;;18.00;100.00;99689.41;90905;1271;23257;-59
2023/06/26 04:04:45;;;;;;;4.20;4.00;;;;;;;18.02;100.00;99691.11;91093;1269;138202;-60
2023/06/26 04:06:46;;;;;;;4.60;4.30;;;;;;;18.04;100.00;99688.33;91158;1271;22390;-59
2023/06/26 04:08:48;;;;;;;4.70;4.40;;;;;;;18.03;100.00;99687.09;91106;1269;139338;-60
2023/06/26 04:10:51;;;;;;;4.70;4.30;;;;;;;18.00;100.00;99689.05;91294;1269;22344;-58
2023/06/26 04:12:53;;;;;;;5.40;5.00;;;;;;;17.95;100.00;99691.52;91110;1267;139483;-58
2023/06/26 04:14:54;;;;;;;4.90;4.60;;;;;;;17.90;100.00;99689.09;91389;1269;22323;-58
2023/06/26 04:16:57;;;;;;;5.20;4.80;;;;;;;17.86;100.00;99689.10;91113;1270;138662;-58
2023/06/26 04:18:59;;;;;;;5.70;5.30;;;;;;;17.84;100.00;99688.84;91398;1269;22303;-59
2023/06/26 04:21:05;;;;;;;4.90;4.60;;;;;;;17.88;100.00;99687.56;91211;1269;138427;-59
2023/06/26 04:23:07;;;;;;;4.70;4.40;;;;;;;17.94;100.00;99686.33;91258;1255;22288;-58
2023/06/26 04:25:11;;;;;;;5.20;4.10;;;;;;;18.01;100.00;99686.36;91203;1271;138164;-59
2023/06/26 04:27:13;;;;;;;4.60;4.30;;;;;;;18.16;100.00;99686.79;91244;1269;22274;-58
2023/06/26 04:29:15;;;;;;;4.50;4.30;;;;;;;18.64;100.00;99683.23;91182;1271;138215;-59
2023/06/26 04:31:17;;;;;;;4.30;4.00;;;;;;;19.04;100.00;99679.17;91286;1270;22323;-58
2023/06/26 04:33:19;;;;;;;4.90;4.60;;;;;;;19.37;100.00;99677.90;91052;1270;138423;-60
2023/06/26 04:35:21;;;;;;;4.20;4.00;;;;;;;19.60;100.00;99681.46;91288;1269;22217;-59
2023/06/26 04:37:24;;;;;;;4.10;3.80;;;;;;;19.69;100.00;99683.94;91080;1270;139238;-59
2023/06/26 04:39:25;;;;;;;5.00;4.50;;;;;;;19.70;100.00;99681.88;91320;1270;22321;-60
2023/06/26 04:41:27;;;;;;;5.30;4.50;;;;;;;19.70;100.00;99677.89;91131;1269;139375;-58
2023/06/26 04:43:29;;;;;;;3.90;3.70;;;;;;;19.61;100.00;99675.36;91300;1269;22215;-60
2023/06/26 04:45:30;;;;;;;4.10;3.90;;;;;;;19.43;100.00;99670.14;91190;1269;138336;-60
2023/06/26 04:47:32;;;;;;;3.90;3.60;;;;;;;19.32;100.00;99672.58;91317;1269;23073;-61
2023/06/26 04:49:34;;;;;;;4.10;3.80;;;;;;;19.15;100.00;99670.59;91173;1269;139680;-58
2023/06/26 04:51:40;;;;;;;5.50;4.80;;;;;;;19.02;100.00;99668.23;91321;1270;22094;-59
2023/06/26 04:53:42;;;;;;;5.40;4.90;;;;;;;18.90;100.00;99670.27;91029;1270;139203;-59
2023/06/26 04:55:44;;;;;;;3.70;3.50;;;;;;;19.02;100.00;99663.70;91252;1270;22981;-59
2023/06/26 04:57:45;;;;;;;4.40;4.10;;;;;;;19.33;100.00;99659.34;91187;1269;139332;-59
2023/06/26 04:59:47;;;;;;;5.90;4.50;;;;;;;19.79;100.00;99660.95;91107;1270;22424;-59
2023/06/26 05:01:49;;;;;;;4.10;3.90;;;;;;;20.26;100.00;99658.52;91162;1268;138155;-59
2023/06/26 05:03:50;;;;;;;3.70;3.20;;;;;;;20.81;100.00;99660.12;91279;1270;22144;-59
2023/06/26 05:05:53;;;;;;;3.40;3.20;;;;;;;21.39;100.00;99656.80;91115;1270;138177;-59
2023/06/26 05:07:55;;;;;;;3.60;3.40;;;;;;;21.71;100.00;99655.71;91271;1270;22672;-58
2023/06/26 05:09:57;;;;;;;3.70;3.40;;;;;;;21.77;100.00;99660.89;91149;1270;137184;-59
2023/06/26 05:11:59;;;;;;;8.30;4.70;;;;;;;21.63;100.00;99657.54;91276;1270;23126;-60
2023/06/26 05:14:00;;;;;;;3.40;3.20;;;;;;;21.36;100.00;99655.77;91148;1269;137030;-60
2023/06/26 05:16:02;;;;;;;4.00;3.70;;;;;;;21.01;100.00;99656.35;91124;1269;138278;-60
2023/06/26 05:18:05;;;;;;;4.20;3.90;;;;;;;20.65;100.00;99655.79;91282;1269;23119;-59
2023/06/26 05:20:07;;;;;;;5.00;4.50;;;;;;;20.28;100.00;99656.09;91149;1271;138230;-59
2023/06/26 05:22:12;;;;;;;3.40;3.30;;;;;;;19.93;100.00;99650.40;91295;1270;22304;-59
2023/06/26 05:24:15;;;;;;;4.10;3.80;;;;;;;19.73;100.00;99646.70;91137;1269;139371;-60
2023/06/26 05:26:17;;;;;;;3.70;3.40;;;;;;;19.61;100.00;99644.55;91261;1265;22318;-60
2023/06/26 05:28:20;;;;;;;3.70;3.60;;;;;;;19.41;100.00;99631.60;91100;1270;139485;-60
2023/06/26 05:30:22;;;;;;;4.30;3.90;;;;;;;19.34;100.00;99636.60;91192;1268;23070;-60
2023/06/26 05:32:24;;;;;;;4.50;4.20;;;;;;;19.27;100.00;99633.05;91133;1262;138625;-62
2023/06/26 05:34:31;;;;;;;4.20;4.00;;;;;;;19.14;100.00;99640.66;91253;1269;22325;-60
2023/06/26 05:36:34;;;;;;;5.10;4.70;;;;;;;19.09;100.00;99641.16;91163;1268;138218;-60
2023/06/26 05:38:35;;;;;;;4.30;4.10;;;;;;;19.10;100.00;99647.98;91227;1271;22353;-62
2023/06/26 05:40:40;;;;;;;4.40;4.10;;;;;;;19.17;100.00;99638.89;91188;1270;139478;-61
2023/06/26 05:42:42;;;;;;;;;;;;;;;19.29;100.00;99640.62;91216;1269;22615;-60
2023/06/26 05:44:44;;;;;;;3.90;3.70;;;;;;;19.16;100.00;99622.89;91078;1271;128057;-59
2023/06/26 05:46:46;;;;;;;3.80;3.70;;;;;;;19.22;100.00;99635.94;91180;1270;23080;-60
2023/06/26 05:48:48;;;;;;;3.50;3.30;;;;;;;19.30;100.00;99645.06;91168;1269;138262;-59
2023/06/26 05:50:50;;;;;;;4.50;4.00;;;;;;;19.28;100.00;99643.70;91259;1269;22328;-61
2023/06/26 05:52:52;;;;;;;3.60;3.40;;;;;;;19.33;100.00;99644.48;91060;1270;138591;-61
2023/06/26 05:54:54;;;;;;;3.90;3.60;;;;;;;19.25;100.00;99640.07;91294;1269;22844;-60
2023/06/26 05:56:59;;;;;;;3.90;3.40;;;;;;;19.21;100.00;99637.35;91149;1269;139903;-60
2023/06/26 05:59:01;;;;;;;;;;;;;;;19.14;100.00;99644.88;91132;1270;22417;-61
2023/06/26 06:01:03;;;;;;;2.60;2.50;;;;;;;19.07;100.00;99649.70;91192;1269;124893;-61
2023/06/26 06:03:05;;;;;;;3.20;3.00;;;;;;;18.94;100.00;99645.56;91227;1270;22325;-61
2023/06/26 06:05:07;;;;;;;3.10;3.00;;;;;;;18.86;100.00;99642.31;91163;1269;138024;-59
2023/06/26 06:07:09;;;;;;;3.40;3.20;;;;;;;18.88;100.00;99643.30;91225;1270;22355;-61
2023/06/26 06:09:11;;;;;;;3.30;3.10;;;;;;;18.76;100.00;99642.68;91119;1270;138949;-61
2023/06/26 06:11:12;;;;;;;3.60;3.40;;;;;;;18.59;100.00;99645.08;91221;1271;23158;-61
2023/06/26 06:13:14;;;;;;;3.50;3.30;;;;;;;18.53;100.00;99645.95;91128;1269;139134;-61
2023/06/26 06:15:16;;;;;;;3.10;3.00;;;;;;;18.54;100.00;99644.34;91107;1270;22992;-59
2023/06/26 06:17:19;;;;;;;2.70;2.60;;;;;;;18.48;100.00;99637.43;91108;1269;139629;-60
2023/06/26 06:19:21;;;;;;;2.60;2.50;;;;;;;18.63;100.00;99644.67;91232;1269;22997;-60
2023/06/26 06:21:23;;;;;;;3.10;2.90;;;;;;;18.67;100.00;99645.78;91106;1270;139037;-61
2023/06/26 06:23:24;;;;;;;4.10;3.70;;;;;;;18.55;100.00;99646.50;91215;1269;22379;-60
2023/06/26 06:25:26;;;;;;;3.10;2.50;;;;;;;18.52;100.00;99631.41;91143;1259;139956;-59
2023/06/26 06:27:28;;;;;;;3.40;3.20;;;;;;;18.59;100.00;99644.85;91256;1270;22145;-60
2023/06/26 06:29:29;;;;;;;4.10;3.80;;;;;;;18.59;100.00;99641.98;91115;1269;138519;-60
2023/06/26 06:31:31;;;;;;;3.60;3.30;;;;;;;18.58;100.00;99641.78;91313;1269;22304;-61
2023/06/26 06:33:34;;;;;;;2.60;2.50;;;;;;;18.56;100.00;99646.15;91159;1270;139169;-61
2023/06/26 06:35:35;;;;;;;2.90;2.80;;;;;;;18.43;100.00;99645.44;91270;1269;22241;-61
2023/06/26 06:37:38;;;;;;;2.60;2.40;;;;;;;18.33;100.00;99645.35;91208;1269;140101;-60
2023/06/26 06:39:40;;;;;;;3.00;2.50;;;;;;;18.26;100.00;99645.18;91319;1269;22301;-60
2023/06/26 06:41:42;;;;;;;2.40;2.20;;;;;;;18.29;100.00;99652.64;91144;1270;138069;-60
2023/06/26 06:46:23;;;;;;;2.40;2.20;;;;;;;18.18;100.00;99650.23;85764;1302;544841;-61
2023/06/26 06:48:25;;;;;;;2.60;2.50;;;;;;;18.28;100.00;99651.56;87353;1282;138999;-61
2023/06/26 06:50:27;;;;;;;2.10;2.10;;;;;;;18.37;100.00;99648.42;87278;1273;22650;-59
2023/06/26 06:52:28;;;;;;;2.10;2.00;;;;;;;18.45;100.00;99644.20;87300;1284;138327;-62
2023/06/26 06:54:30;;;;;;;1.80;1.70;;;;;;;18.53;100.00;99642.33;87355;1285;22546;-61
2023/06/26 06:56:32;;;;;;;1.60;1.60;;;;;;;18.60;100.00;99639.90;87302;1285;138906;-62
2023/06/26 06:58:35;;;;;;;2.10;2.00;;;;;;;18.63;100.00;99643.65;87333;1278;22674;-60
2023/06/26 07:00:37;;;;;;;2.20;2.10;;;;;;;18.55;100.00;99633.12;87283;1283;153866;-60
2023/06/26 07:02:44;;;;;;;2.70;2.30;;;;;;;18.45;100.00;99649.23;87631;1278;23427;-61
2023/06/26 07:04:46;;;;;;;2.60;2.50;;;;;;;18.50;100.00;99645.61;87525;1283;137881;-61
2023/06/26 07:06:48;;;;;;;2.40;2.10;;;;;;;18.50;100.00;99649.69;87617;1282;24909;-61
2023/06/26 07:08:50;;;;;;;2.90;2.70;;;;;;;18.48;100.00;99645.09;87605;1277;139699;-60
2023/06/26 07:10:52;;;;;;;2.70;2.60;;;;;;;18.48;100.00;99644.50;87876;1275;25473;-60
2023/06/26 07:12:54;;;;;;;2.70;2.50;;;;;;;18.47;100.00;99647.03;87769;1269;138012;-60
2023/06/26 07:14:57;;;;;;;2.80;2.20;;;;;;;18.44;100.00;99638.64;87859;1275;22611;-61
2023/06/26 07:16:59;;;;;;;1.50;1.50;;;;;;;18.47;100.00;99637.00;87921;1275;138192;-62
2023/06/26 07:19:00;;;;;;;1.70;1.70;;;;;;;18.58;100.00;99630.83;90917;1275;23184;-60
2023/06/26 07:21:02;;;;;;;1.80;1.70;;;;;;;18.70;100.00;99633.60;90800;1275;138434;-61
2023/06/26 07:23:04;;;;;;;1.60;1.50;;;;;;;18.83;100.00;99626.70;90949;1275;23043;-61
2023/06/26 07:25:09;;;;;;;1.40;1.40;;;;;;;18.97;100.00;99625.08;90736;1275;137799;-62
2023/06/26 07:27:10;;;;;;;;;;;;;;;19.07;100.00;99625.06;90919;1276;23198;-61
2023/06/26 07:29:12;;;;;;;;;;;;;;;19.11;100.00;99629.19;90835;1275;124448;-60
2023/06/26 07:31:14;;;;;;;;;;;;;;;19.09;100.00;99631.52;90896;1275;23020;-61
2023/06/26 07:33:20;;;;;;;;;;;;;;;19.05;100.00;99630.63;90844;1274;124743;-60
2023/06/26 07:35:22;;;;;;;;;;;;;;;18.98;100.00;99634.95;90837;1278;23400;-64
2023/06/26 07:37:24;;;;;;;;;;;;;;;18.95;100.00;99637.41;91073;1270;125987;-60
2023/06/26 07:39:26;;;;;;;;;;;;;;;18.95;100.00;99639.64;91216;1270;22480;-60
2023/06/26 07:41:29;;;;;;;;;;;;;;;18.97;100.00;99638.66;91049;1272;124247;-60
2023/06/26 07:43:31;;;;;;;;;;;;;;;18.93;100.00;99635.30;91222;1270;23203;-60
2023/06/26 07:45:32;;;;;;;;;;;;;;;18.89;100.00;99636.78;91041;1270;125512;-60
2023/06/26 07:47:34;;;;;;;;;;;;;;;18.87;100.00;99634.84;91235;1270;23173;-60
2023/06/26 07:49:35;;;;;;;;;;;;;;;18.88;100.00;99633.65;91148;1270;124416;-60
2023/06/26 07:51:37;;;;;;;;;;;;;;;18.92;100.00;99631.08;91175;1270;22399;-62
2023/06/26 07:53:39;;;;;;;;;;;;;;;18.92;100.00;99622.70;91112;1270;124669;-61
2023/06/26 07:55:40;;;;;;;;;;;;;;;19.03;100.00;99630.17;91225;1270;22417;-63
2023/06/26 07:57:42;;;;;;;;;;;;;;;19.08;100.00;99623.98;91054;1270;123991;-60
2023/06/26 07:59:44;;;;;;;;;;;;;;;19.16;100.00;99625.00;91242;1272;22444;-62
2023/06/26 08:01:45;;;;;;;;;;;;;;;19.20;100.00;99620.86;91032;1271;124419;-60
2023/06/26 08:03:47;;;;;;;;;;;;;;;19.26;100.00;99618.67;91015;1267;22405;-62
2023/06/26 08:05:49;;;;;;;;;;;;;;;19.35;100.00;99620.55;91039;1270;125677;-61
2023/06/26 08:07:51;;;;;;;;;;;;;;;19.38;100.00;99623.37;91186;1270;23149;-61
2023/06/26 08:09:52;;;;;;;;;;;;;;;19.38;100.00;99623.00;90952;1272;125310;-61
2023/06/26 08:11:54;;;;;;;;;;;;;;;19.41;100.00;99625.88;91173;1261;22428;-61
2023/06/26 08:13:55;;;;;;;;;;;;;;;19.41;100.00;99624.46;91054;1266;123786;-61
2023/06/26 08:15:57;;;;;;;;;;;;;;;19.41;100.00;99626.84;91148;1270;22451;-61
2023/06/26 08:17:58;;;;;;;;;;;;;;;19.40;100.00;99627.11;91040;1270;124850;-60
2023/06/26 08:20:00;;;;;;;;;;;;;;;19.35;100.00;99626.83;91213;1270;22394;-60
2023/06/26 08:22:02;;;;;;;;;;;;;;;19.35;100.00;99626.48;91015;1270;124209;-60
2023/06/26 08:24:03;;;;;;;;;;;;;;;19.35;100.00;99626.06;91032;1271;126664;-60
2023/06/26 08:26:05;;;;;;;;;;;;;;;19.34;100.00;99629.52;91069;1272;22542;-61
2023/06/26 08:28:07;;;;;;;;;;;;;;;19.32;100.00;99631.34;91091;1271;124537;-61
2023/06/26 08:30:08;;;;;;;;;;;;;;;19.17;100.00;99637.05;91209;1270;23963;-60
2023/06/26 08:32:10;;;;;;;;;;;;;;;19.10;100.00;99639.08;91099;1270;125874;-61
2023/06/26 08:34:12;;;;;;;;;;;;;;;19.05;100.00;99637.59;91239;1272;22404;-61
2023/06/26 08:36:13;;;;;;;;;;;;;;;18.97;100.00;99633.77;91086;1270;124603;-61
2023/06/26 08:38:15;;;;;;;;;;;;;;;18.92;100.00;99635.40;91145;1270;22413;-60
2023/06/26 08:40:22;;;;;;;;;;;;;;;18.85;100.00;99636.65;91113;1270;124582;-60
2023/06/26 08:42:23;;;;;;;;;;;;;;;18.88;100.00;99639.33;91203;1270;22417;-61
2023/06/26 08:44:25;;;;;;;;;;;;;;;18.87;100.00;99636.61;91051;1271;125604;-62
2023/06/26 08:46:27;;;;;;;;;;;;;;;18.88;100.00;99636.40;91212;1271;22422;-60
2023/06/26 08:48:31;;;;;;;;;;;;;;;18.84;100.00;99636.38;91004;1272;124420;-62
2023/06/26 08:50:34;;;;;;;;;;;;;;;18.81;100.00;99638.45;91244;1270;22448;-60
2023/06/26 08:52:41;;;;;;;;;;;;;;;18.78;100.00;99645.71;91007;1270;124982;-60
2023/06/26 08:54:47;;;;;;;;;;;;;;;18.79;100.00;99646.63;91155;1270;22408;-60
2023/06/26 08:56:49;;;;;;;;;;;;;;;18.77;100.00;99640.80;91125;1271;123999;-60
2023/06/26 08:58:51;;;;;;;;;;;;;;;18.70;100.00;99644.67;91093;1272;23229;-59
2023/06/26 09:00:53;;;;;;;;;;;;;;;18.67;100.00;99644.70;91129;1272;123927;-62
2023/06/26 09:02:56;;;;;;;;;;;;;;;18.70;100.00;99643.21;91174;1271;22821;-60
2023/06/26 09:04:58;;;;;;;;;;;;;;;18.81;100.00;99646.11;91133;1268;126024;-61
2023/06/26 09:07:00;;;;;;;;;;;;;;;18.96;100.00;99652.44;91246;1272;22470;-60
2023/06/26 09:09:02;;;;;;;;;;;;;;;19.07;100.00;99646.73;91120;1270;124185;-61
2023/06/26 09:11:04;;;;;;;;;;;;;;;19.15;100.00;99647.27;91196;1268;22405;-61
2023/06/26 09:13:06;;;;;;;;;;;;;;;19.16;100.00;99643.48;91110;1270;125614;-62
2023/06/26 09:15:21;;;;;;;;;;;;;;;19.12;100.00;99644.00;91222;1271;22433;-62
2023/06/26 09:17:29;;;;;;;;;;;;;;;19.09;100.00;99645.70;91053;1271;124671;-61
2023/06/26 09:19:31;;;;;;;;;;;;;;;19.10;100.00;99648.69;91181;1270;22398;-59
2023/06/26 09:21:35;;;;;;;;;;;;;;;19.08;100.00;99655.42;91131;1270;124215;-59
2023/06/26 09:23:39;;;;;;;;;;;;;;;19.04;100.00;99652.75;91122;1272;22452;-60
2023/06/26 09:25:41;;;;;;;;;;;;;;;18.95;100.00;99651.35;91107;1271;124249;-60
2023/06/26 09:27:43;;;;;;;;;;;;;;;18.91;100.00;99656.41;91194;1271;23318;-60
2023/06/26 09:29:46;;;;;;;;;;;;;;;18.83;100.00;99654.45;91069;1272;125553;-59
2023/06/26 09:31:51;;;;;;;;;;;;;;;18.79;100.00;99666.61;91187;1270;22416;-60
2023/06/26 09:33:55;;;;;;;;;;;;;;;18.74;100.00;99668.46;91138;1270;124666;-60
2023/06/26 09:35:57;;;;;;;;;;;;;;;18.61;100.00;99672.84;91200;1272;22399;-61
2023/06/26 09:37:58;;;;;;;;;;;;;;;18.55;100.00;99674.84;91087;1270;125220;-60
2023/06/26 09:40:00;;;;;;;;;;;;;;;18.48;100.00;99679.73;91210;1272;23031;-61
2023/06/26 09:42:02;;;;;;;;;;;;;;;18.47;100.00;99676.39;91136;1270;124756;-60
2023/06/26 09:44:10;;;;;;;;;;;;;;;18.52;100.00;99671.05;91012;1272;125642;-60